Time;durP1;ratioP1;P1;durP2;ratioP2;P2;SDS_P1;SDS_P2;PMS_P1;PMS_P2;Temp;Humidity;BMP_temperature;BMP_pressure;BME280_temperature;BME280_humidity;BME280_pressure;Samples;Min_cycle;Max_cycle;Signal;HPM_P1;HPM_P2
2022/01/30 21:48:21;;;;;;;;;;;;;;;;;;4236156;27;1458;-58
2022/01/30 21:50:41;;;;;;;;;;;;;;;;;;4236566;28;1517;-57
2022/01/30 21:53:02;;;;;;;;;;;;;;;;;;4236320;28;1608;-57
2022/01/30 21:55:22;;;;;;;;;;;;;;;;;;4235882;27;1072;-57
2022/01/30 21:57:42;;;;;;;;;;;;;;;;;;4235973;28;1123;-57
2022/01/30 22:00:02;;;;;;;;;;;;;;;;;;4236189;28;1023;-57
2022/01/30 22:02:25;;;;;;;;;;;;;;;;;;4236015;27;1080;-57
2022/01/30 22:04:45;;;;;;;;;;;;;;;;;;4235051;27;1209;-57
2022/01/30 22:07:05;;;;;;;;;;;;;;;;;;4235782;27;1909;-57
2022/01/30 22:09:26;;;;;;;;;;;;;;;;;;4235378;28;1052;-57
2022/01/30 22:11:48;;;;;;;;;;;;;;;;;;4235490;27;1190;-57
2022/01/30 22:14:16;;;;;;;;;;;;;;;;;;4235507;27;1172;-57
2022/01/30 22:16:36;;;;;;;;;;;;;;;;;;4236171;27;942;-57
2022/01/30 22:18:57;;;;;;;;;;;;;;;;;;4236360;28;960;-57
2022/01/30 22:21:17;;;;;;;;;;;;;;;;;;4236024;27;1142;-58
2022/01/30 22:23:37;;;;;;;;;;;;;;;;;;4235671;28;1155;-57
2022/01/30 22:25:57;;;;;;;;;;;;;;;;;;4235778;27;1260;-57
2022/01/30 22:28:18;;;;;;;;;;;;;;;;;;4234496;28;1901;-57
2022/01/30 22:30:38;;;;;;;;;;;;;;;;;;4235907;27;1430;-58
2022/01/30 22:32:58;;;;;;;;;;;;;;;;;;4236046;27;1007;-57
2022/01/30 22:35:18;;;;;;;;;;;;;;;;;;4235968;27;937;-58
2022/01/30 22:37:38;;;;;;;;;;;;;;;;;;4236199;28;868;-58
2022/01/30 22:39:59;;;;;;;;;;;;;;;;;;4235629;28;1397;-57
2022/01/30 22:42:20;;;;;;;;;;;;;;;;;;4234466;28;1057;-57
2022/01/30 22:44:40;;;;;;;;;;;;;;;;;;4234836;28;1249;-57
2022/01/30 22:47:01;;;;;;;;;;;;;;;;;;4230081;28;2004;-58
2022/01/30 22:49:21;;;;;;;;;;;;;;;;;;4235453;27;1425;-57
2022/01/30 22:51:41;;;;;;;;;;;;;;;;;;4235793;27;1632;-58
2022/01/30 22:54:01;;;;;;;;;;;;;;;;;;4235844;28;1358;-58
2022/01/30 22:56:22;;;;;;;;;;;;;;;;;;4235898;28;1415;-57
2022/01/30 22:58:42;;;;;;;;;;;;;;;;;;4224404;28;1555;-58
2022/01/30 23:01:03;;;;;;;;;;;;;;;;;;4222616;28;1489;-58
2022/01/30 23:03:23;;;;;;;;;;;;;;;;;;4222388;28;1697;-58
2022/01/30 23:05:43;;;;;;;;;;;;;;;;;;4224241;28;1407;-57
2022/01/30 23:08:03;;;;;;;;;;;;;;;;;;4224279;28;1902;-57
2022/01/30 23:10:24;;;;;;;;;;;;;;;;;;4220697;28;1328;-57
2022/01/30 23:12:44;;;;;;;;;;;;;;;;;;4224251;28;1516;-57
2022/01/30 23:15:04;;;;;;;;;;;;;;;;;;4217047;28;1425;-58
2022/01/30 23:17:25;;;;;;;;;;;;;;;;;;4224312;28;1199;-57
2022/01/30 23:19:45;;;;;;;;;;;;;;;;;;4223737;28;1292;-57
2022/01/30 23:22:06;;;;;;;;;;;;;;;;;;4221347;28;1476;-57
2022/01/30 23:24:28;;;;;;;;;;;;;;;;;;4223013;28;1482;-57
2022/01/30 23:26:48;;;;;;;;;;;;;;;;;;4223548;28;1285;-57
2022/01/30 23:29:09;;;;;;;;;;;;;;;;;;4223826;28;1453;-57
2022/01/30 23:31:30;;;;;;;;;;;;;;;;;;4217431;28;1588;-57
2022/01/30 23:33:51;;;;;;;;;;;;;;;;;;4224017;28;1460;-57
2022/01/30 23:36:12;;;;;;;;;;;;;;;;;;4224202;28;1565;-57
2022/01/30 23:38:32;;;;;;;;;;;;;;;;;;4224036;28;1000;-57
2022/01/30 23:40:53;;;;;;;;;;;;;;;;;;4224147;28;1328;-57
2022/01/30 23:43:16;;;;;;;;;;;;;;;;;;4223993;28;953;-57
2022/01/30 23:45:37;;;;;;;;;;;;;;;;;;4223777;28;957;-58
2022/01/30 23:47:57;;;;;;;;;;;;;;;;;;4223472;28;1913;-57
2022/01/30 23:50:17;;;;;;;;;;;;;;;;;;4223563;28;1216;-57
2022/01/30 23:52:37;;;;;;;;;;;;;;;;;;4223509;28;1088;-58
2022/01/30 23:54:57;;;;;;;;;;;;;;;;;;4223823;28;1072;-57
2022/01/30 23:57:18;;;;;;;;;;;;;;;;;;4223870;28;909;-57
2022/01/30 23:59:38;;;;;;;;;;;;;;;;;;4224082;28;945;-58
